Flight Information

DEPARTURE
SAN FRANCISCO, CA
Elevation:
13
Runways:
10R/28L - 11381x200 - ASPH-G
10L/28R - 11870x200 - ASPH-G
1L/19R - 7650x200 - ASPH-G
1R/19L - 8650x200 - ASPH-G
Active PE Departure:
1R - 1L
Current PE ATIS:
A
Altimeter:
30.07
Remarks:
V F R DEPARTURES CONTACT CLEARANCE DELIVERY, ADVISE ON COURSE HEADING, ALTITUDE, AND IF FLIGHT FOLLOWING IS REQUESTED. NOTICE TO AIRMEN RUNWAY 1 0 RIGHT 2 8 LEFT CLOSED.
ATIS:
118.85 650-877-3585
Clearance Delivery:
118.2
Ground:
121.8
Tower:
120.5
DESTINATION
,
Elevation:
TPA:
1000 (est.)


6905.5 NM69° True-15° Var53° HDG

Flight Plan:
(click to file on line)

1. Type
2. Aircraft Identification
3. Aircraft Type / Special Equipment
4. True Airspeed
kts
5. Departure Airport
(ICAO code)
6. Arriving Airport
(ICAO code)
7. Cruising Altitude
ft
8. Alternate Airport
(ICAO code)
9. Route of Flight
10. Remarks


00:00:00 Departure ATIS: Destination ATIS:

Clearance Limit:
Route:
Altitude: Expect in minutes
Frequency:
Transponder: (7500 Hijack / 7600 Lost Comms / 7700 Emergency)


KSFO 211656Z 04003KT 10SM CLR 22/14 A3007 RMK AO2 SLP183 T02170144
Time: 2021-09-21T16:56:00Z
1632245887
Winds: 40 @ 3 kts
Visibility: 10.0 sm
Clouds (AGL): CLR
Temperature: 21.7 C
Dew Point: 14.4 C
Pressure: 30.070866 in Hgbr


Notes:

Data extracted from FAA Digital Chart Supplement. Effective: 0901Z Thursday, AUG 12, 2021 to 0901Z Thursday, OCT 7, 2021
Current ATIS data is provided courtisy of PilotEdge.